sensor_id;sensor_type;location;lat;lon;timestamp;P1;durP1;ratioP1;P2;durP2;ratioP2
12267;SDS011;6196;48.398;11.736;2023-02-07T00:01:23;15.00;;;11.80;;
12267;SDS011;6196;48.398;11.736;2023-02-07T00:03:51;15.63;;;12.77;;
12267;SDS011;6196;48.398;11.736;2023-02-07T00:06:21;19.00;;;13.23;;
12267;SDS011;6196;48.398;11.736;2023-02-07T00:08:54;16.90;;;12.73;;
12267;SDS011;6196;48.398;11.736;2023-02-07T00:11:21;16.93;;;12.73;;
12267;SDS011;6196;48.398;11.736;2023-02-07T00:13:51;17.83;;;12.67;;
12267;SDS011;6196;48.398;11.736;2023-02-07T00:16:20;20.50;;;13.13;;
12267;SDS011;6196;48.398;11.736;2023-02-07T00:18:47;18.93;;;14.03;;
12267;SDS011;6196;48.398;11.736;2023-02-07T00:21:16;16.90;;;13.43;;
12267;SDS011;6196;48.398;11.736;2023-02-07T00:23:46;17.97;;;13.63;;
12267;SDS011;6196;48.398;11.736;2023-02-07T00:26:13;19.03;;;15.07;;
12267;SDS011;6196;48.398;11.736;2023-02-07T00:28:42;20.50;;;14.10;;
12267;SDS011;6196;48.398;11.736;2023-02-07T00:31:10;21.97;;;14.87;;
12267;SDS011;6196;48.398;11.736;2023-02-07T00:33:41;18.97;;;13.63;;
12267;SDS011;6196;48.398;11.736;2023-02-07T00:36:10;18.30;;;14.13;;
12267;SDS011;6196;48.398;11.736;2023-02-07T00:38:41;19.30;;;14.43;;
12267;SDS011;6196;48.398;11.736;2023-02-07T00:41:09;21.73;;;14.33;;
12267;SDS011;6196;48.398;11.736;2023-02-07T00:43:40;21.17;;;14.37;;
12267;SDS011;6196;48.398;11.736;2023-02-07T00:46:08;21.07;;;14.90;;
12267;SDS011;6196;48.398;11.736;2023-02-07T00:48:35;22.17;;;14.97;;
12267;SDS011;6196;48.398;11.736;2023-02-07T00:51:05;18.50;;;14.47;;
12267;SDS011;6196;48.398;11.736;2023-02-07T00:53:33;21.77;;;15.40;;
12267;SDS011;6196;48.398;11.736;2023-02-07T00:56:00;20.13;;;14.57;;
12267;SDS011;6196;48.398;11.736;2023-02-07T00:58:27;18.10;;;14.10;;
12267;SDS011;6196;48.398;11.736;2023-02-07T01:00:54;21.70;;;15.00;;
12267;SDS011;6196;48.398;11.736;2023-02-07T01:03:21;20.07;;;14.40;;
12267;SDS011;6196;48.398;11.736;2023-02-07T01:05:48;20.50;;;14.57;;
12267;SDS011;6196;48.398;11.736;2023-02-07T01:08:15;17.77;;;14.37;;
12267;SDS011;6196;48.398;11.736;2023-02-07T01:10:42;22.63;;;15.03;;
12267;SDS011;6196;48.398;11.736;2023-02-07T01:13:11;17.63;;;13.70;;
12267;SDS011;6196;48.398;11.736;2023-02-07T01:15:40;18.00;;;14.33;;
12267;SDS011;6196;48.398;11.736;2023-02-07T01:18:10;21.03;;;14.43;;
12267;SDS011;6196;48.398;11.736;2023-02-07T01:20:38;20.50;;;14.40;;
12267;SDS011;6196;48.398;11.736;2023-02-07T01:23:06;25.07;;;14.87;;
12267;SDS011;6196;48.398;11.736;2023-02-07T01:25:33;20.87;;;14.47;;
12267;SDS011;6196;48.398;11.736;2023-02-07T01:28:00;20.30;;;14.53;;
12267;SDS011;6196;48.398;11.736;2023-02-07T01:30:27;18.10;;;14.00;;
12267;SDS011;6196;48.398;11.736;2023-02-07T01:32:54;19.70;;;14.30;;
12267;SDS011;6196;48.398;11.736;2023-02-07T01:35:21;20.17;;;13.93;;
12267;SDS011;6196;48.398;11.736;2023-02-07T01:37:48;18.47;;;13.70;;
12267;SDS011;6196;48.398;11.736;2023-02-07T01:40:15;18.00;;;13.43;;
12267;SDS011;6196;48.398;11.736;2023-02-07T01:42:42;19.27;;;14.37;;
12267;SDS011;6196;48.398;11.736;2023-02-07T01:48:01;18.87;;;13.57;;
12267;SDS011;6196;48.398;11.736;2023-02-07T01:50:33;19.37;;;13.47;;
12267;SDS011;6196;48.398;11.736;2023-02-07T01:53:01;18.23;;;13.47;;
12267;SDS011;6196;48.398;11.736;2023-02-07T01:55:33;15.20;;;12.70;;
12267;SDS011;6196;48.398;11.736;2023-02-07T01:58:03;18.50;;;13.33;;
12267;SDS011;6196;48.398;11.736;2023-02-07T02:00:31;21.70;;;13.70;;
12267;SDS011;6196;48.398;11.736;2023-02-07T02:02:59;16.23;;;12.37;;
12267;SDS011;6196;48.398;11.736;2023-02-07T02:05:27;19.83;;;13.63;;
12267;SDS011;6196;48.398;11.736;2023-02-07T02:07:56;16.47;;;13.10;;
12267;SDS011;6196;48.398;11.736;2023-02-07T02:10:25;17.43;;;13.37;;
12267;SDS011;6196;48.398;11.736;2023-02-07T02:15:55;17.63;;;12.63;;
12267;SDS011;6196;48.398;11.736;2023-02-07T02:27:45;15.80;;;12.43;;
12267;SDS011;6196;48.398;11.736;2023-02-07T02:42:40;19.37;;;12.67;;
12267;SDS011;6196;48.398;11.736;2023-02-07T02:45:20;20.17;;;13.20;;
12267;SDS011;6196;48.398;11.736;2023-02-07T02:47:54;18.17;;;12.07;;
12267;SDS011;6196;48.398;11.736;2023-02-07T02:50:23;16.80;;;11.87;;
12267;SDS011;6196;48.398;11.736;2023-02-07T02:52:53;16.10;;;11.40;;
12267;SDS011;6196;48.398;11.736;2023-02-07T02:55:23;19.13;;;11.57;;
12267;SDS011;6196;48.398;11.736;2023-02-07T02:58:38;16.57;;;11.63;;
12267;SDS011;6196;48.398;11.736;2023-02-07T03:01:50;16.63;;;11.43;;
12267;SDS011;6196;48.398;11.736;2023-02-07T03:18:45;14.37;;;10.60;;
12267;SDS011;6196;48.398;11.736;2023-02-07T03:21:40;14.30;;;9.80;;
12267;SDS011;6196;48.398;11.736;2023-02-07T03:24:14;12.80;;;9.80;;
12267;SDS011;6196;48.398;11.736;2023-02-07T03:26:53;14.93;;;10.13;;
12267;SDS011;6196;48.398;11.736;2023-02-07T03:29:24;15.37;;;10.33;;
12267;SDS011;6196;48.398;11.736;2023-02-07T03:31:54;15.27;;;10.47;;
12267;SDS011;6196;48.398;11.736;2023-02-07T03:34:31;12.90;;;10.20;;
12267;SDS011;6196;48.398;11.736;2023-02-07T03:37:35;15.40;;;9.90;;
12267;SDS011;6196;48.398;11.736;2023-02-07T03:40:16;12.50;;;9.43;;
12267;SDS011;6196;48.398;11.736;2023-02-07T03:42:51;14.03;;;9.70;;
12267;SDS011;6196;48.398;11.736;2023-02-07T03:45:30;13.60;;;9.57;;
12267;SDS011;6196;48.398;11.736;2023-02-07T03:47:57;13.13;;;9.57;;
12267;SDS011;6196;48.398;11.736;2023-02-07T03:50:24;13.90;;;10.20;;
12267;SDS011;6196;48.398;11.736;2023-02-07T03:52:50;13.13;;;10.27;;
12267;SDS011;6196;48.398;11.736;2023-02-07T03:55:17;13.07;;;9.47;;
12267;SDS011;6196;48.398;11.736;2023-02-07T03:57:44;13.53;;;10.13;;
12267;SDS011;6196;48.398;11.736;2023-02-07T04:00:11;15.07;;;9.87;;
12267;SDS011;6196;48.398;11.736;2023-02-07T04:02:39;13.03;;;9.67;;
12267;SDS011;6196;48.398;11.736;2023-02-07T04:05:06;14.23;;;9.67;;
12267;SDS011;6196;48.398;11.736;2023-02-07T04:07:34;13.37;;;9.37;;
12267;SDS011;6196;48.398;11.736;2023-02-07T04:10:01;12.63;;;9.73;;
12267;SDS011;6196;48.398;11.736;2023-02-07T04:12:29;13.80;;;10.00;;
12267;SDS011;6196;48.398;11.736;2023-02-07T04:15:00;13.20;;;9.70;;
12267;SDS011;6196;48.398;11.736;2023-02-07T04:17:27;15.53;;;9.97;;
12267;SDS011;6196;48.398;11.736;2023-02-07T04:19:56;14.40;;;9.87;;
12267;SDS011;6196;48.398;11.736;2023-02-07T04:22:23;13.17;;;9.93;;
12267;SDS011;6196;48.398;11.736;2023-02-07T04:24:50;13.90;;;9.93;;
12267;SDS011;6196;48.398;11.736;2023-02-07T04:27:17;13.10;;;9.73;;
12267;SDS011;6196;48.398;11.736;2023-02-07T04:29:44;13.03;;;9.10;;
12267;SDS011;6196;48.398;11.736;2023-02-07T04:32:11;12.30;;;9.17;;
12267;SDS011;6196;48.398;11.736;2023-02-07T04:34:38;13.23;;;8.80;;
12267;SDS011;6196;48.398;11.736;2023-02-07T04:37:05;14.63;;;10.17;;
12267;SDS011;6196;48.398;11.736;2023-02-07T04:39:32;13.90;;;9.50;;
12267;SDS011;6196;48.398;11.736;2023-02-07T04:41:58;14.57;;;9.97;;
12267;SDS011;6196;48.398;11.736;2023-02-07T04:44:25;13.63;;;9.90;;
12267;SDS011;6196;48.398;11.736;2023-02-07T04:46:53;16.03;;;10.30;;
12267;SDS011;6196;48.398;11.736;2023-02-07T04:49:20;15.67;;;9.90;;
12267;SDS011;6196;48.398;11.736;2023-02-07T04:51:46;13.20;;;9.53;;
12267;SDS011;6196;48.398;11.736;2023-02-07T04:54:13;12.40;;;9.40;;
12267;SDS011;6196;48.398;11.736;2023-02-07T04:56:40;12.37;;;9.20;;
12267;SDS011;6196;48.398;11.736;2023-02-07T04:59:07;12.30;;;9.47;;
12267;SDS011;6196;48.398;11.736;2023-02-07T05:01:34;13.93;;;9.10;;
12267;SDS011;6196;48.398;11.736;2023-02-07T05:04:01;13.63;;;9.27;;
12267;SDS011;6196;48.398;11.736;2023-02-07T05:06:29;15.47;;;9.33;;
12267;SDS011;6196;48.398;11.736;2023-02-07T05:08:56;17.27;;;10.30;;
12267;SDS011;6196;48.398;11.736;2023-02-07T05:11:22;12.87;;;9.57;;
12267;SDS011;6196;48.398;11.736;2023-02-07T05:13:49;13.83;;;9.43;;
12267;SDS011;6196;48.398;11.736;2023-02-07T05:16:16;13.20;;;9.50;;
12267;SDS011;6196;48.398;11.736;2023-02-07T05:18:43;12.67;;;8.93;;
12267;SDS011;6196;48.398;11.736;2023-02-07T05:21:10;13.10;;;9.53;;
12267;SDS011;6196;48.398;11.736;2023-02-07T05:23:38;14.10;;;9.87;;
12267;SDS011;6196;48.398;11.736;2023-02-07T05:26:04;15.97;;;9.63;;
12267;SDS011;6196;48.398;11.736;2023-02-07T05:28:31;16.80;;;10.40;;
12267;SDS011;6196;48.398;11.736;2023-02-07T05:30:59;15.00;;;10.40;;
12267;SDS011;6196;48.398;11.736;2023-02-07T05:33:26;14.00;;;10.17;;
12267;SDS011;6196;48.398;11.736;2023-02-07T05:35:53;12.50;;;9.57;;
12267;SDS011;6196;48.398;11.736;2023-02-07T05:38:20;14.90;;;10.37;;
12267;SDS011;6196;48.398;11.736;2023-02-07T05:40:47;14.77;;;10.30;;
12267;SDS011;6196;48.398;11.736;2023-02-07T05:43:14;13.97;;;9.70;;
12267;SDS011;6196;48.398;11.736;2023-02-07T05:45:41;17.13;;;10.97;;
12267;SDS011;6196;48.398;11.736;2023-02-07T05:48:11;16.97;;;11.37;;
12267;SDS011;6196;48.398;11.736;2023-02-07T05:50:38;17.07;;;11.37;;
12267;SDS011;6196;48.398;11.736;2023-02-07T05:53:06;16.70;;;11.53;;
12267;SDS011;6196;48.398;11.736;2023-02-07T05:55:33;16.10;;;10.57;;
12267;SDS011;6196;48.398;11.736;2023-02-07T05:58:01;16.43;;;10.27;;
12267;SDS011;6196;48.398;11.736;2023-02-07T06:00:28;15.53;;;10.37;;
12267;SDS011;6196;48.398;11.736;2023-02-07T06:02:55;16.87;;;10.23;;
12267;SDS011;6196;48.398;11.736;2023-02-07T06:05:22;16.23;;;10.87;;
12267;SDS011;6196;48.398;11.736;2023-02-07T06:07:50;14.17;;;10.17;;
12267;SDS011;6196;48.398;11.736;2023-02-07T06:10:17;13.67;;;10.37;;
12267;SDS011;6196;48.398;11.736;2023-02-07T06:12:44;14.13;;;10.30;;
12267;SDS011;6196;48.398;11.736;2023-02-07T06:15:11;13.57;;;9.93;;
12267;SDS011;6196;48.398;11.736;2023-02-07T06:17:38;17.17;;;12.00;;
12267;SDS011;6196;48.398;11.736;2023-02-07T06:20:05;16.10;;;11.07;;
12267;SDS011;6196;48.398;11.736;2023-02-07T06:22:33;16.90;;;10.83;;
12267;SDS011;6196;48.398;11.736;2023-02-07T06:25:00;13.10;;;9.80;;
12267;SDS011;6196;48.398;11.736;2023-02-07T06:27:27;14.50;;;10.43;;
12267;SDS011;6196;48.398;11.736;2023-02-07T06:29:54;17.47;;;11.50;;
12267;SDS011;6196;48.398;11.736;2023-02-07T06:32:21;14.57;;;10.43;;
12267;SDS011;6196;48.398;11.736;2023-02-07T06:34:48;15.40;;;10.77;;
12267;SDS011;6196;48.398;11.736;2023-02-07T06:37:15;20.03;;;11.97;;
12267;SDS011;6196;48.398;11.736;2023-02-07T06:39:42;20.10;;;11.60;;
12267;SDS011;6196;48.398;11.736;2023-02-07T06:42:09;19.47;;;11.93;;
12267;SDS011;6196;48.398;11.736;2023-02-07T06:44:35;17.57;;;11.50;;
12267;SDS011;6196;48.398;11.736;2023-02-07T06:47:02;15.93;;;11.10;;
12267;SDS011;6196;48.398;11.736;2023-02-07T06:49:29;16.20;;;11.53;;
12267;SDS011;6196;48.398;11.736;2023-02-07T06:51:56;18.97;;;11.63;;
12267;SDS011;6196;48.398;11.736;2023-02-07T06:54:23;18.70;;;11.63;;
12267;SDS011;6196;48.398;11.736;2023-02-07T06:56:50;19.93;;;12.17;;
12267;SDS011;6196;48.398;11.736;2023-02-07T06:59:17;19.70;;;12.90;;
12267;SDS011;6196;48.398;11.736;2023-02-07T07:01:44;19.83;;;12.90;;
12267;SDS011;6196;48.398;11.736;2023-02-07T07:04:14;16.27;;;12.20;;
12267;SDS011;6196;48.398;11.736;2023-02-07T07:06:41;16.63;;;11.50;;
12267;SDS011;6196;48.398;11.736;2023-02-07T07:09:08;15.97;;;11.47;;
12267;SDS011;6196;48.398;11.736;2023-02-07T07:11:35;19.40;;;12.87;;
12267;SDS011;6196;48.398;11.736;2023-02-07T07:14:08;17.33;;;12.20;;
12267;SDS011;6196;48.398;11.736;2023-02-07T07:16:36;15.90;;;11.13;;
12267;SDS011;6196;48.398;11.736;2023-02-07T07:19:04;18.63;;;11.70;;
12267;SDS011;6196;48.398;11.736;2023-02-07T07:21:31;15.03;;;10.53;;
12267;SDS011;6196;48.398;11.736;2023-02-07T07:23:58;18.57;;;12.17;;
12267;SDS011;6196;48.398;11.736;2023-02-07T07:26:25;18.70;;;11.10;;
12267;SDS011;6196;48.398;11.736;2023-02-07T07:29:04;17.17;;;11.07;;
12267;SDS011;6196;48.398;11.736;2023-02-07T07:31:33;12.97;;;9.67;;
12267;SDS011;6196;48.398;11.736;2023-02-07T07:34:00;14.80;;;10.53;;
12267;SDS011;6196;48.398;11.736;2023-02-07T07:36:27;16.17;;;10.30;;
12267;SDS011;6196;48.398;11.736;2023-02-07T07:38:53;15.07;;;9.97;;
12267;SDS011;6196;48.398;11.736;2023-02-07T07:41:20;15.17;;;10.30;;
12267;SDS011;6196;48.398;11.736;2023-02-07T07:43:48;12.93;;;9.93;;
12267;SDS011;6196;48.398;11.736;2023-02-07T07:46:15;13.57;;;9.37;;
12267;SDS011;6196;48.398;11.736;2023-02-07T07:48:42;14.37;;;10.13;;
12267;SDS011;6196;48.398;11.736;2023-02-07T07:51:09;14.00;;;9.37;;
12267;SDS011;6196;48.398;11.736;2023-02-07T07:53:36;13.30;;;9.60;;
12267;SDS011;6196;48.398;11.736;2023-02-07T07:56:03;14.70;;;9.57;;
12267;SDS011;6196;48.398;11.736;2023-02-07T07:58:30;15.87;;;10.67;;
12267;SDS011;6196;48.398;11.736;2023-02-07T08:00:57;15.07;;;10.27;;
12267;SDS011;6196;48.398;11.736;2023-02-07T08:03:24;12.03;;;9.27;;
12267;SDS011;6196;48.398;11.736;2023-02-07T08:05:51;12.30;;;9.33;;
12267;SDS011;6196;48.398;11.736;2023-02-07T08:08:18;15.47;;;9.87;;
12267;SDS011;6196;48.398;11.736;2023-02-07T08:10:45;14.17;;;9.57;;
12267;SDS011;6196;48.398;11.736;2023-02-07T08:13:13;13.40;;;9.50;;
12267;SDS011;6196;48.398;11.736;2023-02-07T08:15:42;12.53;;;10.07;;
12267;SDS011;6196;48.398;11.736;2023-02-07T08:18:09;13.40;;;9.30;;
12267;SDS011;6196;48.398;11.736;2023-02-07T08:20:36;13.33;;;9.70;;
12267;SDS011;6196;48.398;11.736;2023-02-07T08:23:03;11.60;;;9.13;;
12267;SDS011;6196;48.398;11.736;2023-02-07T08:25:30;12.67;;;9.60;;
12267;SDS011;6196;48.398;11.736;2023-02-07T08:27:57;12.80;;;10.00;;
12267;SDS011;6196;48.398;11.736;2023-02-07T08:30:24;13.00;;;9.33;;
12267;SDS011;6196;48.398;11.736;2023-02-07T08:32:51;15.67;;;9.70;;
12267;SDS011;6196;48.398;11.736;2023-02-07T08:35:20;13.17;;;10.73;;
12267;SDS011;6196;48.398;11.736;2023-02-07T08:37:47;14.13;;;9.63;;
12267;SDS011;6196;48.398;11.736;2023-02-07T08:40:15;15.07;;;9.77;;
12267;SDS011;6196;48.398;11.736;2023-02-07T08:42:42;13.53;;;10.27;;
12267;SDS011;6196;48.398;11.736;2023-02-07T08:45:10;12.83;;;9.80;;
12267;SDS011;6196;48.398;11.736;2023-02-07T08:47:37;12.67;;;9.37;;
12267;SDS011;6196;48.398;11.736;2023-02-07T08:50:04;16.17;;;10.40;;
12267;SDS011;6196;48.398;11.736;2023-02-07T08:52:32;12.97;;;9.37;;
12267;SDS011;6196;48.398;11.736;2023-02-07T08:54:59;13.50;;;10.17;;
12267;SDS011;6196;48.398;11.736;2023-02-07T08:57:26;10.63;;;8.60;;
12267;SDS011;6196;48.398;11.736;2023-02-07T08:59:53;12.43;;;9.20;;
12267;SDS011;6196;48.398;11.736;2023-02-07T09:02:20;13.07;;;9.60;;
12267;SDS011;6196;48.398;11.736;2023-02-07T09:04:47;14.77;;;10.53;;
12267;SDS011;6196;48.398;11.736;2023-02-07T09:07:14;11.20;;;9.87;;
12267;SDS011;6196;48.398;11.736;2023-02-07T09:09:41;11.77;;;9.90;;
12267;SDS011;6196;48.398;11.736;2023-02-07T09:12:08;12.37;;;10.50;;
12267;SDS011;6196;48.398;11.736;2023-02-07T09:14:36;13.63;;;10.33;;
12267;SDS011;6196;48.398;11.736;2023-02-07T09:17:04;11.87;;;9.53;;
12267;SDS011;6196;48.398;11.736;2023-02-07T09:19:33;12.57;;;10.67;;
12267;SDS011;6196;48.398;11.736;2023-02-07T09:22:02;13.10;;;9.60;;
12267;SDS011;6196;48.398;11.736;2023-02-07T09:24:30;13.23;;;9.80;;
12267;SDS011;6196;48.398;11.736;2023-02-07T09:26:57;12.50;;;9.27;;
12267;SDS011;6196;48.398;11.736;2023-02-07T09:29:24;10.73;;;9.27;;
12267;SDS011;6196;48.398;11.736;2023-02-07T09:31:51;14.37;;;9.80;;
12267;SDS011;6196;48.398;11.736;2023-02-07T09:34:18;11.57;;;9.67;;
12267;SDS011;6196;48.398;11.736;2023-02-07T09:36:45;12.97;;;10.33;;
12267;SDS011;6196;48.398;11.736;2023-02-07T09:39:12;11.10;;;9.80;;
12267;SDS011;6196;48.398;11.736;2023-02-07T09:44:44;12.33;;;9.33;;
12267;SDS011;6196;48.398;11.736;2023-02-07T09:47:36;11.17;;;9.23;;
12267;SDS011;6196;48.398;11.736;2023-02-07T09:50:10;10.67;;;9.07;;
12267;SDS011;6196;48.398;11.736;2023-02-07T09:53:10;12.10;;;9.53;;
12267;SDS011;6196;48.398;11.736;2023-02-07T09:56:00;11.40;;;9.90;;
12267;SDS011;6196;48.398;11.736;2023-02-07T09:58:42;12.93;;;10.00;;
12267;SDS011;6196;48.398;11.736;2023-02-07T10:01:40;12.87;;;9.80;;
12267;SDS011;6196;48.398;11.736;2023-02-07T10:06:52;13.80;;;10.57;;
12267;SDS011;6196;48.398;11.736;2023-02-07T10:09:32;12.77;;;9.67;;
12267;SDS011;6196;48.398;11.736;2023-02-07T10:12:09;12.90;;;9.57;;
12267;SDS011;6196;48.398;11.736;2023-02-07T10:27:15;11.93;;;8.93;;
12267;SDS011;6196;48.398;11.736;2023-02-07T10:32:21;11.70;;;8.30;;
12267;SDS011;6196;48.398;11.736;2023-02-07T10:34:58;10.33;;;8.40;;
12267;SDS011;6196;48.398;11.736;2023-02-07T10:37:35;12.37;;;8.60;;
12267;SDS011;6196;48.398;11.736;2023-02-07T10:40:10;10.77;;;7.87;;
12267;SDS011;6196;48.398;11.736;2023-02-07T10:42:45;9.73;;;8.33;;
12267;SDS011;6196;48.398;11.736;2023-02-07T10:45:20;8.93;;;7.77;;
12267;SDS011;6196;48.398;11.736;2023-02-07T10:47:46;9.37;;;7.60;;
12267;SDS011;6196;48.398;11.736;2023-02-07T10:50:17;9.73;;;7.87;;
12267;SDS011;6196;48.398;11.736;2023-02-07T10:52:56;9.93;;;7.83;;
12267;SDS011;6196;48.398;11.736;2023-02-07T10:58:21;11.43;;;8.40;;
12267;SDS011;6196;48.398;11.736;2023-02-07T11:00:50;10.93;;;8.57;;
12267;SDS011;6196;48.398;11.736;2023-02-07T11:03:22;9.87;;;7.87;;
12267;SDS011;6196;48.398;11.736;2023-02-07T11:08:29;11.30;;;8.10;;
12267;SDS011;6196;48.398;11.736;2023-02-07T11:14:06;10.50;;;9.10;;
12267;SDS011;6196;48.398;11.736;2023-02-07T11:16:33;11.00;;;8.27;;
12267;SDS011;6196;48.398;11.736;2023-02-07T11:19:04;10.43;;;7.67;;
12267;SDS011;6196;48.398;11.736;2023-02-07T11:24:00;9.53;;;7.83;;
12267;SDS011;6196;48.398;11.736;2023-02-07T11:26:32;12.30;;;8.43;;
12267;SDS011;6196;48.398;11.736;2023-02-07T11:31:41;12.60;;;9.30;;
12267;SDS011;6196;48.398;11.736;2023-02-07T11:37:08;11.50;;;8.63;;
12267;SDS011;6196;48.398;11.736;2023-02-07T11:39:54;12.77;;;9.57;;
12267;SDS011;6196;48.398;11.736;2023-02-07T11:42:47;12.57;;;9.83;;
12267;SDS011;6196;48.398;11.736;2023-02-07T11:45:18;13.20;;;9.27;;
12267;SDS011;6196;48.398;11.736;2023-02-07T11:47:48;13.07;;;10.70;;
12267;SDS011;6196;48.398;11.736;2023-02-07T11:50:20;13.83;;;10.20;;
12267;SDS011;6196;48.398;11.736;2023-02-07T11:52:56;15.10;;;10.50;;
12267;SDS011;6196;48.398;11.736;2023-02-07T11:55:37;11.93;;;10.10;;
12267;SDS011;6196;48.398;11.736;2023-02-07T11:58:30;14.80;;;10.47;;
12267;SDS011;6196;48.398;11.736;2023-02-07T12:01:04;11.63;;;9.27;;
12267;SDS011;6196;48.398;11.736;2023-02-07T12:03:49;12.37;;;9.57;;
12267;SDS011;6196;48.398;11.736;2023-02-07T12:06:37;13.97;;;9.67;;
12267;SDS011;6196;48.398;11.736;2023-02-07T12:09:28;11.00;;;9.33;;
12267;SDS011;6196;48.398;11.736;2023-02-07T12:12:21;11.70;;;9.20;;
12267;SDS011;6196;48.398;11.736;2023-02-07T12:14:57;10.87;;;9.20;;
12267;SDS011;6196;48.398;11.736;2023-02-07T12:17:30;12.90;;;9.90;;
12267;SDS011;6196;48.398;11.736;2023-02-07T12:26:12;14.17;;;10.67;;
12267;SDS011;6196;48.398;11.736;2023-02-07T12:31:43;11.20;;;9.57;;
12267;SDS011;6196;48.398;11.736;2023-02-07T12:42:59;12.50;;;9.13;;
12267;SDS011;6196;48.398;11.736;2023-02-07T12:51:32;14.50;;;9.83;;
12267;SDS011;6196;48.398;11.736;2023-02-07T13:08:59;10.60;;;8.53;;
12267;SDS011;6196;48.398;11.736;2023-02-07T13:11:39;10.93;;;8.47;;
12267;SDS011;6196;48.398;11.736;2023-02-07T13:14:25;10.47;;;8.70;;
12267;SDS011;6196;48.398;11.736;2023-02-07T13:22:36;11.40;;;9.27;;
12267;SDS011;6196;48.398;11.736;2023-02-07T13:25:13;9.83;;;8.83;;
12267;SDS011;6196;48.398;11.736;2023-02-07T13:27:54;9.57;;;8.57;;
12267;SDS011;6196;48.398;11.736;2023-02-07T13:30:24;10.43;;;9.03;;
12267;SDS011;6196;48.398;11.736;2023-02-07T13:32:56;10.27;;;8.73;;
12267;SDS011;6196;48.398;11.736;2023-02-07T13:35:31;10.17;;;8.53;;
12267;SDS011;6196;48.398;11.736;2023-02-07T13:40:54;9.90;;;8.60;;
12267;SDS011;6196;48.398;11.736;2023-02-07T13:55:16;10.10;;;8.87;;
12267;SDS011;6196;48.398;11.736;2023-02-07T13:57:55;9.10;;;8.13;;
12267;SDS011;6196;48.398;11.736;2023-02-07T14:01:07;8.10;;;7.30;;
12267;SDS011;6196;48.398;11.736;2023-02-07T14:03:41;8.80;;;7.93;;
12267;SDS011;6196;48.398;11.736;2023-02-07T14:06:38;8.40;;;7.50;;
12267;SDS011;6196;48.398;11.736;2023-02-07T14:11:56;9.00;;;7.37;;
12267;SDS011;6196;48.398;11.736;2023-02-07T14:14:34;8.43;;;7.53;;
12267;SDS011;6196;48.398;11.736;2023-02-07T14:24:46;13.27;;;10.97;;
12267;SDS011;6196;48.398;11.736;2023-02-07T14:30:25;8.97;;;8.07;;
12267;SDS011;6196;48.398;11.736;2023-02-07T14:33:18;9.10;;;7.53;;
12267;SDS011;6196;48.398;11.736;2023-02-07T14:38:58;28.17;;;22.97;;
12267;SDS011;6196;48.398;11.736;2023-02-07T14:41:44;9.00;;;7.27;;
12267;SDS011;6196;48.398;11.736;2023-02-07T14:46:56;7.37;;;6.63;;
12267;SDS011;6196;48.398;11.736;2023-02-07T14:49:41;7.50;;;6.00;;
12267;SDS011;6196;48.398;11.736;2023-02-07T14:52:14;7.33;;;6.23;;
12267;SDS011;6196;48.398;11.736;2023-02-07T15:03:09;7.23;;;6.53;;
12267;SDS011;6196;48.398;11.736;2023-02-07T15:05:47;9.17;;;7.93;;
12267;SDS011;6196;48.398;11.736;2023-02-07T15:08:18;17.57;;;13.73;;
12267;SDS011;6196;48.398;11.736;2023-02-07T15:11:04;9.73;;;8.70;;
12267;SDS011;6196;48.398;11.736;2023-02-07T15:13:45;7.17;;;6.13;;
12267;SDS011;6196;48.398;11.736;2023-02-07T15:16:18;9.40;;;7.07;;
12267;SDS011;6196;48.398;11.736;2023-02-07T15:18:55;6.27;;;5.67;;
12267;SDS011;6196;48.398;11.736;2023-02-07T15:26:42;6.30;;;5.70;;
12267;SDS011;6196;48.398;11.736;2023-02-07T15:29:19;6.90;;;5.90;;
12267;SDS011;6196;48.398;11.736;2023-02-07T15:31:51;7.67;;;6.77;;
12267;SDS011;6196;48.398;11.736;2023-02-07T15:34:22;7.47;;;6.03;;
12267;SDS011;6196;48.398;11.736;2023-02-07T15:37:10;6.93;;;6.03;;
12267;SDS011;6196;48.398;11.736;2023-02-07T15:39:40;6.80;;;6.10;;
12267;SDS011;6196;48.398;11.736;2023-02-07T15:42:10;8.60;;;6.53;;
12267;SDS011;6196;48.398;11.736;2023-02-07T15:44:48;6.60;;;5.80;;
12267;SDS011;6196;48.398;11.736;2023-02-07T15:50:04;7.07;;;5.60;;
12267;SDS011;6196;48.398;11.736;2023-02-07T15:52:50;6.40;;;5.00;;
12267;SDS011;6196;48.398;11.736;2023-02-07T15:55:40;5.30;;;4.40;;
12267;SDS011;6196;48.398;11.736;2023-02-07T15:58:54;6.07;;;4.63;;
12267;SDS011;6196;48.398;11.736;2023-02-07T16:01:04;7.00;;;4.70;;
12267;SDS011;6196;48.398;11.736;2023-02-07T16:03:43;8.90;;;4.70;;
12267;SDS011;6196;48.398;11.736;2023-02-07T16:08:54;7.47;;;5.17;;
12267;SDS011;6196;48.398;11.736;2023-02-07T16:16:23;7.33;;;5.60;;
12267;SDS011;6196;48.398;11.736;2023-02-07T16:21:42;7.73;;;6.03;;
12267;SDS011;6196;48.398;11.736;2023-02-07T16:26:43;8.73;;;5.73;;
12267;SDS011;6196;48.398;11.736;2023-02-07T16:29:15;8.80;;;5.23;;
12267;SDS011;6196;48.398;11.736;2023-02-07T16:31:48;7.43;;;4.70;;
12267;SDS011;6196;48.398;11.736;2023-02-07T16:34:17;6.50;;;5.10;;
12267;SDS011;6196;48.398;11.736;2023-02-07T16:36:47;9.47;;;5.77;;
12267;SDS011;6196;48.398;11.736;2023-02-07T16:39:19;8.37;;;6.23;;
12267;SDS011;6196;48.398;11.736;2023-02-07T16:41:49;9.17;;;6.63;;
12267;SDS011;6196;48.398;11.736;2023-02-07T16:44:24;9.23;;;6.07;;
12267;SDS011;6196;48.398;11.736;2023-02-07T16:46:53;12.73;;;7.90;;
12267;SDS011;6196;48.398;11.736;2023-02-07T16:49:21;8.63;;;6.30;;
12267;SDS011;6196;48.398;11.736;2023-02-07T16:51:51;8.37;;;6.40;;
12267;SDS011;6196;48.398;11.736;2023-02-07T16:54:19;12.43;;;7.30;;
12267;SDS011;6196;48.398;11.736;2023-02-07T16:56:47;8.07;;;6.10;;
12267;SDS011;6196;48.398;11.736;2023-02-07T16:59:20;8.23;;;6.27;;
12267;SDS011;6196;48.398;11.736;2023-02-07T17:01:49;8.17;;;5.73;;
12267;SDS011;6196;48.398;11.736;2023-02-07T17:04:18;7.83;;;5.63;;
12267;SDS011;6196;48.398;11.736;2023-02-07T17:06:45;8.07;;;5.60;;
12267;SDS011;6196;48.398;11.736;2023-02-07T17:09:21;9.40;;;6.43;;
12267;SDS011;6196;48.398;11.736;2023-02-07T17:11:50;11.17;;;7.77;;
12267;SDS011;6196;48.398;11.736;2023-02-07T17:14:18;19.90;;;10.57;;
12267;SDS011;6196;48.398;11.736;2023-02-07T17:16:46;14.47;;;9.17;;
12267;SDS011;6196;48.398;11.736;2023-02-07T17:19:14;11.83;;;7.87;;
12267;SDS011;6196;48.398;11.736;2023-02-07T17:21:50;11.80;;;8.50;;
12267;SDS011;6196;48.398;11.736;2023-02-07T17:24:17;13.63;;;7.90;;
12267;SDS011;6196;48.398;11.736;2023-02-07T17:26:46;13.30;;;7.83;;
12267;SDS011;6196;48.398;11.736;2023-02-07T17:29:16;13.33;;;9.17;;
12267;SDS011;6196;48.398;11.736;2023-02-07T17:31:44;9.80;;;7.40;;
12267;SDS011;6196;48.398;11.736;2023-02-07T17:34:12;10.07;;;6.67;;
12267;SDS011;6196;48.398;11.736;2023-02-07T17:36:39;9.70;;;6.80;;
12267;SDS011;6196;48.398;11.736;2023-02-07T17:39:14;9.00;;;6.93;;
12267;SDS011;6196;48.398;11.736;2023-02-07T17:41:42;8.13;;;6.13;;
12267;SDS011;6196;48.398;11.736;2023-02-07T17:44:09;9.47;;;6.27;;
12267;SDS011;6196;48.398;11.736;2023-02-07T17:46:36;8.40;;;5.93;;
12267;SDS011;6196;48.398;11.736;2023-02-07T17:49:03;10.43;;;6.00;;
12267;SDS011;6196;48.398;11.736;2023-02-07T17:51:40;11.67;;;7.03;;
12267;SDS011;6196;48.398;11.736;2023-02-07T17:54:07;13.37;;;9.97;;
12267;SDS011;6196;48.398;11.736;2023-02-07T17:56:34;10.40;;;7.80;;
12267;SDS011;6196;48.398;11.736;2023-02-07T17:59:03;11.13;;;7.77;;
12267;SDS011;6196;48.398;11.736;2023-02-07T18:01:32;9.90;;;7.33;;